Zarechensk — ONGC — position and weather

sailwx.info

Track history (hours):
 
Tides and Currents Weather Stations Pressure Air Temp Water Temp Dewpoint Dewpoint Depression Visibility Wind Speed Wind Dir Waves Ship Positions

Zarechensk

Last reported at 2015-Jan-28 12:18 UTC. Time now 2015-Jan-28 16:21 UTC.
Position N 39°04' W 009°51'.

Length 180 m; draft 10.3 m.

MMSI: 205561000.

Date/timePositionNaut miles runAvg speedWind from/ knotsBaromVisibWave heightAir tempDewpointWater temp
2015-Jan-28 12:18N 39°04' W 009°51'8 8.5
2015-Jan-28 11:21N 38°56' W 009°52'8 9.1
2015-Jan-28 10:25N 38°48' W 009°51'9 9.4
2015-Jan-28 09:30N 38°39' W 009°50'9 9.7
2015-Jan-28 08:33N 38°30' W 009°47'10 9.9
2015-Jan-28 07:33N 38°20' W 009°45'32 9.9
2015-Jan-28 04:22N 37°49' W 009°36'28 9.8
2015-Jan-28 01:31N 37°22' W 009°28'47 9.4
2015-Jan-27 20:33N 36°43' W 008°56'2411.1
2015-Jan-27 18:23N 36°40' W 008°26'150 6.0
2015-Jan-26 17:33N 35°59' W 005°28'10 9.8
2015-Jan-26 16:33N 36°02' W 005°16'  
2015-Jan-22 15:33N 36°34' E 014°06'1411.5
2015-Jan-22 14:22N 36°29' E 014°22'48310.8
2015-Jan-20 17:25N 37°47' E 024°20'  
Track history (hours):
 
Tides and Currents Weather Stations Pressure Air Temp Water Temp Dewpoint Dewpoint Depression Visibility Wind Speed Wind Dir Waves Ship Positions

Zarechensk

Last reported at 2015-Jan-28 12:18 UTC. Time now 2015-Jan-28 16:21 UTC.
Position N 39°04' W 009°51'.

Length 180 m; draft 10.3 m.

MMSI: 205561000.

Date/timePositionNaut miles runAvg speedWind from/ knotsBaromVisibWave heightAir tempDewpointWater temp
2015-Jan-28 12:18N 39°04' W 009°51'8 8.5
2015-Jan-28 11:21N 38°56' W 009°52'8 9.1
2015-Jan-28 10:25N 38°48' W 009°51'9 9.4
2015-Jan-28 09:30N 38°39' W 009°50'9 9.7
2015-Jan-28 08:33N 38°30' W 009°47'10 9.9
2015-Jan-28 07:33N 38°20' W 009°45'32 9.9
2015-Jan-28 04:22N 37°49' W 009°36'28 9.8
2015-Jan-28 01:31N 37°22' W 009°28'47 9.4
2015-Jan-27 20:33N 36°43' W 008°56'2411.1
2015-Jan-27 18:23N 36°40' W 008°26'150 6.0
2015-Jan-26 17:33N 35°59' W 005°28'10 9.8
2015-Jan-26 16:33N 36°02' W 005°16'  
2015-Jan-22 15:33N 36°34' E 014°06'1411.5
2015-Jan-22 14:22N 36°29' E 014°22'48310.8
2015-Jan-20 17:25N 37°47' E 024°20'  

Dump ship's entire track history